Time;durP1;ratioP1;P1;durP2;ratioP2;P2;SDS_P1;SDS_P2;PMS_P1;PMS_P2;Temp;Humidity;BMP_temperature;BMP_pressure;BME280_temperature;BME280_humidity;BME280_pressure;Samples;Min_cycle;Max_cycle;Signal;HPM_P1;HPM_P2
2021/06/10 00:01:03;;;;;;;2.17;2.08;;;;;;;24.86;34.43;102106.28;4158322;28;20044;-60
2021/06/10 00:03:04;;;;;;;1.77;1.67;;;;;;;25.15;34.24;102107.47;4156506;28;20026;-67
2021/06/10 00:05:06;;;;;;;2.10;1.90;;;;;;;25.24;33.99;102095.41;4155659;28;20041;-63
2021/06/10 00:07:07;;;;;;;1.85;1.40;;;;;;;25.31;33.59;102102.66;4154465;28;20037;-70
2021/06/10 00:09:08;;;;;;;1.80;1.70;;;;;;;25.02;34.14;102103.38;4155460;28;20509;-70
2021/06/10 00:11:08;;;;;;;2.25;2.05;;;;;;;24.98;34.10;102107.88;4160314;28;20028;-71
2021/06/10 00:13:09;;;;;;;2.60;2.40;;;;;;;24.61;34.63;102092.44;4155774;28;20084;-71
2021/06/10 00:15:14;;;;;;;1.80;1.50;;;;;;;24.95;34.08;102070.09;4158312;28;20037;-70
2021/06/10 00:17:16;;;;;;;5.25;2.20;;;;;;;24.76;34.36;102097.94;4154800;28;20033;-69
2021/06/10 00:19:16;;;;;;;2.50;2.38;;;;;;;24.99;34.12;102103.97;4154388;28;20456;-68
2021/06/10 00:21:17;;;;;;;2.92;2.08;;;;;;;24.40;35.05;102082.16;4148105;28;20114;-67
2021/06/10 00:23:17;;;;;;;3.50;2.10;;;;;;;24.21;35.30;102095.94;4158360;28;20048;-67
2021/06/10 00:25:18;;;;;;;2.88;2.53;;;;;;;24.17;35.53;102100.44;4154725;28;20042;-68
2021/06/10 00:27:21;;;;;;;2.30;2.17;;;;;;;24.70;34.63;102096.28;4153228;28;20045;-69
2021/06/10 00:29:21;;;;;;;2.50;2.30;;;;;;;24.62;34.58;102094.94;4155020;28;20137;-69
2021/06/10 00:31:22;;;;;;;3.15;2.42;;;;;;;24.64;34.44;102087.13;4159413;28;20064;-68
2021/06/10 00:33:22;;;;;;;3.13;2.00;;;;;;;24.57;34.89;102092.97;4155751;28;20083;-65
2021/06/10 00:35:23;;;;;;;2.80;2.20;;;;;;;24.65;34.74;102090.75;4156954;28;20096;-65
2021/06/10 00:37:23;;;;;;;2.30;2.10;;;;;;;24.56;34.58;102096.06;4154888;28;20361;-65
2021/06/10 00:39:24;;;;;;;2.25;2.05;;;;;;;24.18;35.22;102057.34;4154143;28;20057;-65
2021/06/10 00:41:24;;;;;;;2.42;2.28;;;;;;;24.42;35.04;102093.06;4157181;28;20118;-65
2021/06/10 00:43:25;;;;;;;2.22;2.03;;;;;;;24.53;34.73;102086.31;4155860;28;20034;-65
2021/06/10 00:45:26;;;;;;;3.10;2.80;;;;;;;24.42;35.03;102089.44;4154935;28;20042;-64
2021/06/10 00:47:27;;;;;;;2.97;2.28;;;;;;;24.45;34.59;102089.69;4159088;28;20119;-65
2021/06/10 00:49:27;;;;;;;2.63;2.22;;;;;;;24.09;35.24;102089.00;4157087;28;20479;-65
2021/06/10 00:51:28;;;;;;;4.70;2.72;;;;;;;24.30;35.13;102082.22;4156610;28;20057;-63
2021/06/10 00:53:29;;;;;;;2.35;2.00;;;;;;;24.62;34.74;102078.16;4155776;28;20092;-63
2021/06/10 00:55:29;;;;;;;2.80;2.60;;;;;;;24.34;34.89;102074.91;4154087;28;20073;-64
2021/06/10 00:57:30;;;;;;;3.38;2.80;;;;;;;24.33;34.99;102073.25;4159069;28;20111;-64
2021/06/10 00:59:30;;;;;;;3.35;2.10;;;;;;;24.34;34.99;102069.31;4154128;28;20061;-64
2021/06/10 01:01:31;;;;;;;2.03;1.92;;;;;;;24.10;35.23;102066.34;4155325;28;20033;-64
2021/06/10 01:03:31;;;;;;;3.63;2.10;;;;;;;24.12;35.49;102075.28;4157256;28;20026;-64
2021/06/10 01:05:32;;;;;;;2.20;2.00;;;;;;;24.60;34.66;102072.00;4153908;28;20041;-63
2021/06/10 01:08:03;;;;;;;1.95;1.75;;;;;;;24.46;34.68;102071.78;4157076;28;20048;-64
2021/06/10 01:10:51;;;;;;;2.30;1.98;;;;;;;24.75;33.99;102071.09;4149768;28;20033;-64
2021/06/10 01:13:05;;;;;;;2.50;2.30;;;;;;;24.43;34.82;102065.94;4091384;28;20031;-64
2021/06/10 01:15:10;;;;;;;3.03;2.00;;;;;;;24.29;34.82;102063.75;4093957;28;20027;-65
2021/06/10 01:17:11;;;;;;;2.40;2.20;;;;;;;24.09;35.20;102056.28;4097320;28;20394;-64
2021/06/10 01:19:36;;;;;;;2.78;2.30;;;;;;;24.11;35.38;102062.41;4156437;28;20033;-63
2021/06/10 01:21:37;;;;;;;2.70;2.50;;;;;;;24.35;34.69;102064.56;4153758;28;20526;-64
2021/06/10 01:24:00;;;;;;;7.90;2.83;;;;;;;23.93;35.32;102061.06;4158614;28;20083;-63
2021/06/10 01:26:09;;;;;;;3.78;2.72;;;;;;;24.10;34.88;102049.56;4135040;28;20042;-63
2021/06/10 01:28:11;;;;;;;2.70;2.47;;;;;;;23.99;35.50;102053.50;4156745;28;20126;-63
2021/06/10 01:30:21;;;;;;;3.30;2.95;;;;;;;23.89;35.78;102048.75;4157154;28;20037;-63
2021/06/10 01:32:23;;;;;;;3.33;2.45;;;;;;;23.99;35.52;102045.97;4154133;28;20099;-62
2021/06/10 01:34:25;;;;;;;3.03;2.72;;;;;;;23.87;35.48;102049.03;4152874;28;20044;-62
2021/06/10 01:36:29;;;;;;;3.90;2.65;;;;;;;24.09;35.16;102045.09;4150593;28;20030;-62
2021/06/10 01:38:31;;;;;;;2.70;2.50;;;;;;;23.95;35.34;102038.41;4152467;28;20107;-67
2021/06/10 01:40:32;;;;;;;4.40;3.20;;;;;;;23.65;36.00;102040.16;4153766;28;20050;-67
2021/06/10 01:42:35;;;;;;;3.28;2.70;;;;;;;23.75;35.71;102042.09;4154346;28;20087;-64
2021/06/10 01:44:36;;;;;;;3.47;3.17;;;;;;;23.62;35.72;102024.81;4157663;28;20468;-65
2021/06/10 01:46:37;;;;;;;3.08;2.40;;;;;;;23.90;35.41;102030.00;4152552;28;20060;-65
2021/06/10 01:48:43;;;;;;;5.55;2.97;;;;;;;23.65;35.70;102032.63;4152718;28;20034;-66
2021/06/10 01:50:48;;;;;;;4.60;3.60;;;;;;;23.15;36.60;102037.13;4158146;28;20095;-67
2021/06/10 01:52:51;;;;;;;3.47;3.17;;;;;;;23.65;35.58;102037.34;4154921;28;20026;-66
2021/06/10 01:54:53;;;;;;;3.10;2.78;;;;;;;23.95;35.33;102033.66;4148468;28;20104;-69
2021/06/10 01:56:55;;;;;;;3.83;3.53;;;;;;;23.49;36.21;102045.78;4156054;28;20551;-70
2021/06/10 01:58:58;;;;;;;4.05;3.55;;;;;;;23.45;36.24;102041.03;4151013;28;20462;-69
2021/06/10 02:01:00;;;;;;;2.88;2.67;;;;;;;23.50;36.18;102041.88;4155036;28;20026;-69
2021/06/10 02:03:02;;;;;;;3.05;2.78;;;;;;;23.58;35.81;102025.66;4151917;28;20033;-69
2021/06/10 02:05:13;;;;;;;3.65;3.35;;;;;;;23.48;36.08;102032.06;4156732;28;20476;-69
2021/06/10 02:07:14;;;;;;;4.35;3.97;;;;;;;23.14;36.54;102027.91;4150753;28;20030;-68
2021/06/10 02:09:16;;;;;;;4.63;4.22;;;;;;;23.03;36.59;102023.41;4151273;28;20044;-69
2021/06/10 02:11:17;;;;;;;3.50;3.30;;;;;;;23.56;35.92;102027.88;4153748;28;20117;-69
2021/06/10 02:13:19;;;;;;;4.13;3.83;;;;;;;23.43;35.91;102018.13;4158891;28;20148;-68
2021/06/10 02:15:20;;;;;;;3.78;3.45;;;;;;;23.41;35.94;102018.41;4152802;28;20036;-68
2021/06/10 02:17:20;;;;;;;4.00;3.67;;;;;;;23.20;36.55;102016.72;4154773;28;20030;-64
2021/06/10 02:19:21;;;;;;;3.22;2.88;;;;;;;23.24;36.30;102015.88;4142223;28;20188;-65
2021/06/10 02:21:22;;;;;;;3.83;3.40;;;;;;;23.19;36.45;102001.06;4150413;28;20044;-65
2021/06/10 02:23:22;;;;;;;3.25;2.83;;;;;;;23.41;35.94;102004.44;4156020;28;20042;-65
2021/06/10 02:25:23;;;;;;;4.10;3.22;;;;;;;23.20;36.52;101991.59;4155193;28;20036;-65
2021/06/10 02:27:23;;;;;;;3.50;3.20;;;;;;;23.12;36.47;102005.00;4155886;28;20041;-65
2021/06/10 02:29:23;;;;;;;4.70;3.67;;;;;;;23.11;36.56;102006.13;4152766;28;20087;-63
2021/06/10 02:31:24;;;;;;;3.47;3.20;;;;;;;23.24;35.99;101999.13;4157140;28;20597;-64
2021/06/10 02:33:25;;;;;;;2.83;2.60;;;;;;;23.23;36.39;101997.44;4161018;28;20033;-63
2021/06/10 02:35:25;;;;;;;4.80;3.60;;;;;;;23.14;36.71;102001.91;4156070;28;20057;-59
2021/06/10 02:37:27;;;;;;;4.40;4.00;;;;;;;23.07;36.60;101996.63;4157322;28;20063;-60
2021/06/10 02:39:29;;;;;;;3.33;3.13;;;;;;;23.04;36.69;101999.97;4155003;28;20052;-60
2021/06/10 02:41:31;;;;;;;3.72;3.50;;;;;;;23.24;36.36;101995.50;4158811;28;20033;-61
2021/06/10 02:43:33;;;;;;;4.70;4.10;;;;;;;22.87;37.03;101996.63;4155316;28;20121;-60
2021/06/10 02:45:38;;;;;;;5.43;4.70;;;;;;;23.00;36.61;102001.63;4154335;28;20056;-60
2021/06/10 02:47:40;;;;;;;3.30;2.95;;;;;;;23.46;35.77;102001.63;4154435;28;20084;-60
2021/06/10 02:49:44;;;;;;;2.53;2.33;;;;;;;23.73;35.19;102007.97;4158199;28;20090;-60
2021/06/10 02:51:45;;;;;;;4.65;3.53;;;;;;;23.27;36.11;101994.94;4157780;28;20669;-59
2021/06/10 02:53:48;;;;;;;4.70;4.03;;;;;;;23.11;36.40;101999.69;4156969;28;20075;-59
2021/06/10 02:55:51;;;;;;;3.75;3.20;;;;;;;23.28;35.91;101989.06;4155201;28;20460;-60
2021/06/10 02:57:55;;;;;;;4.30;3.90;;;;;;;23.35;35.97;102005.56;4154920;28;20032;-60
2021/06/10 02:59:56;;;;;;;3.70;3.40;;;;;;;23.23;36.04;101988.22;4158259;28;20110;-60
2021/06/10 03:01:58;;;;;;;3.83;3.45;;;;;;;23.36;36.05;102012.84;4159273;28;20069;-61
2021/06/10 03:03:59;;;;;;;5.80;3.88;;;;;;;23.05;36.70;101998.88;4156979;28;20036;-61
2021/06/10 03:06:01;;;;;;;3.80;3.45;;;;;;;23.10;36.44;101995.22;4160849;28;20061;-61
2021/06/10 03:08:01;;;;;;;2.67;2.47;;;;;;;23.10;36.37;101981.28;4156847;28;20104;-61
2021/06/10 03:10:05;;;;;;;4.65;3.17;;;;;;;23.20;36.31;101972.03;4154543;28;20041;-61
2021/06/10 03:12:08;;;;;;;4.28;3.88;;;;;;;22.90;36.83;101984.91;4154115;28;20035;-60
2021/06/10 03:14:10;;;;;;;6.25;5.65;;;;;;;22.56;37.27;101977.88;4158148;28;20017;-59
2021/06/10 03:16:11;;;;;;;7.50;5.40;;;;;;;22.81;36.72;101979.03;4161091;28;20053;-60
2021/06/10 03:18:12;;;;;;;6.57;5.97;;;;;;;22.50;37.53;101976.19;4157993;28;20037;-58
2021/06/10 03:20:13;;;;;;;7.25;5.78;;;;;;;22.41;37.66;101972.25;4159365;28;20025;-58
2021/06/10 03:22:13;;;;;;;5.75;5.25;;;;;;;22.43;37.40;101959.72;4154528;28;20038;-60
2021/06/10 03:24:15;;;;;;;5.47;4.95;;;;;;;22.80;36.91;101975.41;4159325;28;20671;-62
2021/06/10 03:26:21;;;;;;;5.22;4.72;;;;;;;23.15;36.02;101978.47;4157807;28;20403;-62
2021/06/10 03:28:22;;;;;;;7.35;4.22;;;;;;;23.02;36.48;101982.66;4158182;28;20041;-62
2021/06/10 03:30:24;;;;;;;5.30;4.90;;;;;;;22.86;36.51;101973.44;4156803;28;20037;-60
2021/06/10 03:32:27;;;;;;;5.15;4.72;;;;;;;22.83;36.66;101975.97;4160711;28;20053;-60
2021/06/10 03:34:28;;;;;;;8.60;6.22;;;;;;;22.72;36.63;101958.38;4155312;28;20444;-59
2021/06/10 03:36:30;;;;;;;5.40;4.90;;;;;;;22.66;37.10;101976.22;4156254;28;20037;-60
2021/06/10 03:38:31;;;;;;;6.03;4.75;;;;;;;22.61;37.01;101979.81;4154314;28;20046;-60
2021/06/10 03:40:32;;;;;;;4.95;4.55;;;;;;;22.63;37.11;101980.38;4147126;28;20203;-66
2021/06/10 03:42:34;;;;;;;5.45;5.03;;;;;;;22.56;36.97;101980.66;4156130;28;20431;-66
2021/06/10 03:44:35;;;;;;;5.45;4.72;;;;;;;22.42;37.52;101988.72;4155497;28;20642;-66
2021/06/10 03:46:36;;;;;;;5.53;5.03;;;;;;;22.33;37.75;101998.75;4158233;28;20099;-65
2021/06/10 03:48:41;;;;;;;6.35;4.88;;;;;;;22.42;37.34;101985.94;4157851;28;20033;-65
2021/06/10 03:50:43;;;;;;;5.60;5.10;;;;;;;22.39;37.27;101972.53;4155157;28;20543;-66
2021/06/10 03:52:44;;;;;;;5.90;5.30;;;;;;;22.47;36.99;101978.69;4159301;28;20053;-65
2021/06/10 03:54:45;;;;;;;4.75;4.40;;;;;;;22.30;37.63;101984.53;4153524;28;20717;-66
2021/06/10 03:56:46;;;;;;;4.93;4.40;;;;;;;22.49;37.29;101979.25;4153267;28;20099;-65
2021/06/10 03:58:46;;;;;;;4.20;3.90;;;;;;;22.39;37.22;101983.69;4155378;28;20745;-61
2021/06/10 04:00:48;;;;;;;5.90;5.18;;;;;;;22.41;37.38;101978.66;4156740;28;20125;-64
2021/06/10 04:02:48;;;;;;;6.63;6.03;;;;;;;21.99;38.14;101985.25;4152389;28;20041;-59
2021/06/10 04:04:48;;;;;;;5.95;5.25;;;;;;;21.82;38.04;101945.56;4159969;28;20030;-59
2021/06/10 04:06:49;;;;;;;5.97;5.38;;;;;;;22.19;37.56;101980.88;4154997;28;20064;-61
2021/06/10 04:08:49;;;;;;;7.15;6.45;;;;;;;22.03;37.64;101974.41;4157231;28;20029;-60
2021/06/10 04:10:50;;;;;;;6.95;6.25;;;;;;;22.08;37.70;101982.78;4153671;28;20041;-60
2021/06/10 04:12:51;;;;;;;6.85;6.25;;;;;;;21.81;38.13;101982.91;4157648;28;20033;-61
2021/06/10 04:14:51;;;;;;;7.30;6.28;;;;;;;21.82;37.93;101984.59;4153250;28;20040;-61
2021/06/10 04:16:52;;;;;;;5.18;4.78;;;;;;;22.05;37.45;101984.16;4157009;28;20030;-62
2021/06/10 04:18:53;;;;;;;6.35;5.57;;;;;;;22.07;37.55;101984.75;4155073;28;20029;-62
2021/06/10 04:20:54;;;;;;;5.88;5.13;;;;;;;22.09;37.29;101981.69;4141904;28;20116;-63
2021/06/10 04:22:54;;;;;;;5.50;5.07;;;;;;;21.92;37.69;101971.53;4155313;28;20030;-63
2021/06/10 04:24:55;;;;;;;8.20;5.35;;;;;;;21.89;37.39;101955.34;4159434;28;20060;-63
2021/06/10 04:26:55;;;;;;;7.22;5.75;;;;;;;22.14;37.10;101975.28;4155145;28;20499;-63
2021/06/10 04:28:56;;;;;;;5.85;5.38;;;;;;;21.62;38.00;101977.81;4156273;28;20119;-63
2021/06/10 04:30:57;;;;;;;4.60;4.20;;;;;;;21.78;37.87;101983.44;4154266;28;20404;-63
2021/06/10 04:32:58;;;;;;;4.05;3.65;;;;;;;21.75;37.82;101973.72;4153583;28;20681;-65
2021/06/10 04:34:58;;;;;;;4.65;4.00;;;;;;;21.82;37.60;101967.88;4154697;28;20017;-66
2021/06/10 04:36:59;;;;;;;4.95;4.38;;;;;;;21.69;38.04;101967.25;4157818;28;20037;-63
2021/06/10 04:39:00;;;;;;;4.50;4.05;;;;;;;21.63;38.07;101962.78;4156513;28;20041;-63
2021/06/10 04:41:01;;;;;;;4.20;3.80;;;;;;;21.67;37.85;101961.13;4154525;28;20085;-61
2021/06/10 04:43:01;;;;;;;3.78;3.45;;;;;;;21.24;38.56;101968.66;4156327;28;20038;-61
2021/06/10 04:45:03;;;;;;;7.68;3.67;;;;;;;21.54;38.16;101962.44;4155271;28;20025;-61
2021/06/10 04:47:04;;;;;;;7.30;4.25;;;;;;;21.45;38.42;101957.66;4157741;28;20030;-63
2021/06/10 04:49:06;;;;;;;4.55;3.42;;;;;;;21.89;37.45;101979.63;4151994;28;20082;-68
2021/06/10 04:51:07;;;;;;;3.50;3.20;;;;;;;22.07;36.99;101979.16;4156123;28;20499;-63
2021/06/10 04:53:08;;;;;;;3.35;3.05;;;;;;;21.63;37.96;101982.28;4158921;28;20033;-63
2021/06/10 04:55:09;;;;;;;8.30;3.88;;;;;;;21.46;38.28;101976.88;4153882;28;20054;-61
2021/06/10 04:57:09;;;;;;;4.50;3.50;;;;;;;21.41;38.61;101981.56;4156059;28;20030;-60
2021/06/10 04:59:10;;;;;;;3.80;3.25;;;;;;;21.24;39.00;101987.28;4156042;28;20066;-61
2021/06/10 05:01:10;;;;;;;3.38;3.05;;;;;;;21.49;38.56;101989.44;4155784;28;20025;-62
2021/06/10 05:03:10;;;;;;;4.38;3.17;;;;;;;21.53;38.62;101979.41;4154688;28;20255;-61
2021/06/10 05:05:12;;;;;;;3.50;3.20;;;;;;;21.14;39.25;101983.31;4155352;28;20636;-61
2021/06/10 05:07:12;;;;;;;3.17;2.88;;;;;;;21.30;39.10;101984.31;4153563;28;20048;-62
2021/06/10 05:09:12;;;;;;;4.20;3.80;;;;;;;21.18;39.62;101994.78;4155999;28;20539;-61
2021/06/10 05:11:13;;;;;;;3.70;3.40;;;;;;;21.37;38.87;101992.44;4153125;28;20025;-61
2021/06/10 05:13:13;;;;;;;4.40;4.00;;;;;;;20.59;40.72;101990.94;4148237;28;20042;-61
2021/06/10 05:15:14;;;;;;;4.18;3.20;;;;;;;21.11;39.56;101992.19;4152808;28;20041;-60
2021/06/10 05:17:15;;;;;;;5.07;3.53;;;;;;;21.59;38.60;102000.63;4153897;28;20063;-62
2021/06/10 05:19:16;;;;;;;3.80;3.28;;;;;;;21.54;38.63;102004.22;4157883;28;20471;-63
2021/06/10 05:21:16;;;;;;;4.22;3.40;;;;;;;21.47;38.84;102008.34;4155841;28;20109;-63
2021/06/10 05:23:17;;;;;;;5.72;3.50;;;;;;;21.28;39.44;101999.56;4138228;28;20033;-63
2021/06/10 05:25:17;;;;;;;4.10;3.45;;;;;;;21.34;39.42;102012.47;4155628;28;20036;-59
2021/06/10 05:27:18;;;;;;;5.00;3.70;;;;;;;21.42;39.04;102008.31;4150550;28;20034;-62
2021/06/10 05:29:18;;;;;;;5.22;3.20;;;;;;;21.47;38.72;102000.00;4158555;28;20040;-61
2021/06/10 05:31:20;;;;;;;4.03;3.17;;;;;;;21.71;38.39;102008.78;4154955;28;20034;-64
2021/06/10 05:33:20;;;;;;;6.93;3.65;;;;;;;21.15;39.57;102012.00;4155091;28;20072;-62
2021/06/10 05:35:22;;;;;;;4.03;2.92;;;;;;;21.50;38.78;102005.03;4157466;28;20499;-63
2021/06/10 05:37:22;;;;;;;3.42;3.10;;;;;;;21.31;39.10;101994.31;4152636;28;20063;-64
2021/06/10 05:39:23;;;;;;;6.03;3.10;;;;;;;21.43;39.10;102010.84;4155080;28;20029;-64
2021/06/10 05:41:23;;;;;;;7.18;3.55;;;;;;;20.92;40.33;101993.72;4156780;28;20038;-64
2021/06/10 05:43:24;;;;;;;4.82;3.45;;;;;;;21.19;40.12;102002.00;4152041;28;20132;-64
2021/06/10 05:45:24;;;;;;;5.60;3.65;;;;;;;21.13;40.05;102001.16;4159053;28;20543;-64
2021/06/10 05:47:25;;;;;;;5.05;3.75;;;;;;;21.10;40.38;102006.38;4154111;28;20030;-64
2021/06/10 05:49:25;;;;;;;9.00;3.90;;;;;;;21.21;40.29;102008.16;4154768;28;20109;-64
2021/06/10 05:51:26;;;;;;;5.63;3.70;;;;;;;21.50;39.63;102007.81;4153184;28;20430;-62
2021/06/10 05:53:26;;;;;;;5.60;3.13;;;;;;;21.68;39.46;102015.72;4150147;28;20042;-62
2021/06/10 05:55:27;;;;;;;6.75;3.67;;;;;;;21.77;39.28;102015.25;4158440;28;20037;-62
2021/06/10 05:57:27;;;;;;;6.60;3.10;;;;;;;21.51;39.86;102020.66;4153345;28;20554;-62
2021/06/10 05:59:28;;;;;;;7.70;4.10;;;;;;;21.40;40.02;102004.97;4157400;28;20076;-62
2021/06/10 06:01:28;;;;;;;5.60;3.33;;;;;;;21.54;40.07;102015.38;4161759;28;20038;-61
2021/06/10 06:03:32;;;;;;;4.57;3.58;;;;;;;21.70;39.80;102016.31;4157928;28;20038;-62
2021/06/10 06:05:32;;;;;;;11.27;4.30;;;;;;;21.58;40.14;102023.19;4155338;28;20041;-62
2021/06/10 06:07:33;;;;;;;5.72;4.05;;;;;;;21.77;39.83;102016.06;4143893;28;20827;-62
2021/06/10 06:09:36;;;;;;;7.43;4.68;;;;;;;21.67;40.12;102018.78;4156520;28;20040;-61
2021/06/10 06:11:36;;;;;;;12.40;4.25;;;;;;;21.71;40.47;102012.41;4157531;28;20037;-62
2021/06/10 06:13:54;;;;;;;12.93;4.60;;;;;;;21.78;40.24;102019.69;4152480;28;20038;-62
2021/06/10 06:16:02;;;;;;;9.20;4.30;;;;;;;21.83;39.99;102022.50;4159162;28;20056;-61
2021/06/10 06:18:03;;;;;;;10.85;4.90;;;;;;;21.68;40.53;102024.09;4158457;28;20119;-62
2021/06/10 06:20:04;;;;;;;13.63;5.07;;;;;;;21.56;41.17;102029.03;4155742;28;20033;-61
2021/06/10 06:22:08;;;;;;;14.60;5.55;;;;;;;21.59;41.06;102024.88;4161252;28;20091;-61
2021/06/10 06:24:09;;;;;;;13.68;5.53;;;;;;;21.63;41.39;102038.00;4153932;28;20022;-62
2021/06/10 06:26:10;;;;;;;11.88;5.35;;;;;;;21.68;41.31;102045.56;4157259;28;20073;-61
2021/06/10 06:28:10;;;;;;;10.15;4.38;;;;;;;21.81;40.70;102044.22;4159538;28;20048;-64
2021/06/10 06:30:12;;;;;;;15.00;4.82;;;;;;;21.74;41.28;102034.16;4156120;28;20096;-63
2021/06/10 06:32:12;;;;;;;13.80;5.03;;;;;;;21.69;41.32;102052.81;4157372;28;20215;-64
2021/06/10 06:34:12;;;;;;;12.20;5.75;;;;;;;21.66;41.08;102036.63;4156392;28;20030;-64
2021/06/10 06:36:13;;;;;;;12.82;5.57;;;;;;;21.80;40.90;102056.50;4156851;28;20044;-68
2021/06/10 06:38:13;;;;;;;10.70;5.53;;;;;;;21.67;41.60;102066.16;4154150;28;20064;-65
2021/06/10 06:40:14;;;;;;;15.90;5.63;;;;;;;21.80;41.06;102060.13;4154681;28;20116;-62
2021/06/10 06:42:15;;;;;;;11.63;5.55;;;;;;;21.94;40.53;102056.84;4160591;28;20542;-59
2021/06/10 06:44:15;;;;;;;11.60;5.70;;;;;;;21.61;41.39;102054.16;4159632;28;20028;-59
2021/06/10 06:46:16;;;;;;;10.10;4.72;;;;;;;21.93;40.79;102050.41;4154487;28;20036;-60
2021/06/10 06:48:16;;;;;;;9.50;5.10;;;;;;;21.94;40.82;102054.91;4160987;28;20041;-62
2021/06/10 06:50:17;;;;;;;13.05;5.38;;;;;;;21.70;41.46;102057.25;4140885;28;20045;-61
2021/06/10 06:52:17;;;;;;;19.92;5.65;;;;;;;21.75;41.38;102071.25;4138218;28;20129;-61
2021/06/10 06:54:18;;;;;;;12.30;4.65;;;;;;;21.84;41.44;102071.56;4153734;28;20038;-59
2021/06/10 06:56:18;;;;;;;14.82;6.05;;;;;;;21.83;40.90;102058.75;4155766;28;20087;-61
2021/06/10 06:58:18;;;;;;;13.38;5.45;;;;;;;21.77;41.30;102080.16;4160427;28;20033;-62
2021/06/10 07:00:20;;;;;;;11.25;5.63;;;;;;;21.64;41.96;102067.56;4159026;28;20034;-62
2021/06/10 07:02:20;;;;;;;11.45;5.82;;;;;;;21.71;41.42;102070.91;4153532;28;20163;-61
2021/06/10 07:04:21;;;;;;;9.25;4.45;;;;;;;21.81;41.33;102072.09;4160331;28;20163;-60
2021/06/10 07:06:21;;;;;;;9.82;5.00;;;;;;;21.88;41.53;102070.75;4153906;28;20474;-63
2021/06/10 07:08:22;;;;;;;16.90;5.40;;;;;;;21.97;41.28;102073.03;4156010;28;20037;-63
2021/06/10 07:10:22;;;;;;;12.15;4.82;;;;;;;22.08;41.04;102084.00;4156831;28;20036;-66
2021/06/10 07:12:22;;;;;;;10.48;4.88;;;;;;;22.05;40.92;102084.53;4151347;28;20120;-63
2021/06/10 07:14:23;;;;;;;7.85;3.90;;;;;;;22.00;41.15;102078.94;4153939;28;20089;-64
2021/06/10 07:16:23;;;;;;;10.95;3.42;;;;;;;22.08;40.75;102084.00;4152491;28;20419;-64
2021/06/10 07:18:24;;;;;;;12.52;4.07;;;;;;;21.83;41.48;102087.44;4153802;28;20037;-65
2021/06/10 07:20:24;;;;;;;11.52;4.47;;;;;;;22.07;41.27;102092.63;4158414;28;20037;-62
2021/06/10 07:22:25;;;;;;;11.55;4.50;;;;;;;21.99;41.63;102091.19;4157531;28;20091;-63
2021/06/10 07:24:25;;;;;;;8.25;3.95;;;;;;;21.85;41.38;102089.97;4153631;28;20037;-67
2021/06/10 07:26:26;;;;;;;5.75;3.90;;;;;;;22.01;41.32;102088.13;4152756;28;20030;-67
2021/06/10 07:28:26;;;;;;;12.23;4.43;;;;;;;21.77;42.06;102088.53;4153206;28;20041;-67
2021/06/10 07:30:26;;;;;;;10.48;4.88;;;;;;;22.00;41.55;102092.88;4152867;28;20488;-66
2021/06/10 07:32:28;;;;;;;7.80;3.78;;;;;;;21.84;41.96;102099.44;4152840;28;20109;-66
2021/06/10 07:34:28;;;;;;;12.70;4.63;;;;;;;21.81;42.26;102092.47;4154872;28;20036;-67
2021/06/10 07:36:29;;;;;;;7.75;3.80;;;;;;;22.08;41.59;102100.72;4150533;28;20412;-62
2021/06/10 07:38:29;;;;;;;8.85;3.70;;;;;;;21.77;42.01;102088.53;4152840;28;20022;-61
2021/06/10 07:40:31;;;;;;;11.10;4.10;;;;;;;22.09;41.48;102102.41;4156570;28;20688;-60
2021/06/10 07:42:31;;;;;;;6.32;3.33;;;;;;;21.86;41.73;102097.22;4159711;28;20033;-61
2021/06/10 07:44:32;;;;;;;10.00;3.85;;;;;;;22.11;40.86;102090.97;4153448;28;20029;-61
2021/06/10 07:46:32;;;;;;;9.85;3.75;;;;;;;22.21;40.69;102099.41;4158500;28;20037;-61
2021/06/10 07:48:33;;;;;;;8.80;3.80;;;;;;;22.00;40.95;102095.66;4154632;28;20444;-61
2021/06/10 07:50:33;;;;;;;8.10;3.55;;;;;;;22.34;40.25;102113.97;4158642;28;20060;-61
2021/06/10 07:52:34;;;;;;;6.30;3.28;;;;;;;22.49;39.72;102105.63;4158907;28;20133;-61
2021/06/10 07:54:36;;;;;;;4.90;2.85;;;;;;;22.27;40.32;102111.41;4154440;28;20030;-61
2021/06/10 07:56:37;;;;;;;7.30;3.47;;;;;;;22.19;40.60;102111.94;4159021;28;20033;-60
2021/06/10 07:58:37;;;;;;;6.15;3.17;;;;;;;21.87;41.09;102107.25;4157530;28;20036;-61
2021/06/10 08:00:37;;;;;;;5.70;2.95;;;;;;;22.23;40.39;102107.50;4152559;28;20038;-61
2021/06/10 08:02:38;;;;;;;5.28;3.25;;;;;;;22.33;39.92;102110.31;4160083;28;20368;-61
2021/06/10 08:04:38;;;;;;;6.72;2.90;;;;;;;22.47;39.81;102116.25;4152913;28;20034;-61
2021/06/10 08:06:39;;;;;;;5.78;2.88;;;;;;;22.37;39.74;102107.81;4157209;28;20033;-61
2021/06/10 08:08:39;;;;;;;5.65;3.17;;;;;;;22.37;39.71;102105.88;4158557;28;20513;-61
2021/06/10 08:10:41;;;;;;;7.43;3.10;;;;;;;22.41;39.59;102104.22;4153252;28;20461;-60
2021/06/10 08:12:42;;;;;;;5.93;2.60;;;;;;;22.52;39.60;102104.25;4158089;28;20039;-61
2021/06/10 08:14:42;;;;;;;5.90;2.92;;;;;;;22.59;39.51;102102.06;4140187;28;20129;-63
2021/06/10 08:16:42;;;;;;;6.22;2.92;;;;;;;22.52;39.51;102090.31;4155139;28;20821;-62
2021/06/10 08:18:43;;;;;;;9.23;2.80;;;;;;;22.69;39.42;102095.69;4155867;28;20045;-62
2021/06/10 08:20:43;;;;;;;8.68;2.80;;;;;;;22.72;39.36;102106.31;4154867;28;20038;-62
2021/06/10 08:22:44;;;;;;;5.57;2.60;;;;;;;22.76;39.21;102104.66;4155248;28;20022;-62
2021/06/10 08:24:45;;;;;;;6.00;2.78;;;;;;;22.54;39.54;102100.09;4156937;28;20244;-62
2021/06/10 08:26:47;;;;;;;7.05;2.42;;;;;;;22.80;39.01;102109.41;4156132;28;20026;-62
2021/06/10 08:28:47;;;;;;;7.32;2.60;;;;;;;22.81;39.25;102101.88;4156983;28;20440;-62
2021/06/10 08:30:47;;;;;;;6.22;2.28;;;;;;;22.76;39.22;102105.47;4157638;28;20036;-62
2021/06/10 08:32:48;;;;;;;4.85;2.35;;;;;;;22.83;39.17;102104.38;4150317;28;20040;-62
2021/06/10 08:34:50;;;;;;;11.45;2.92;;;;;;;22.75;38.96;102101.00;4154589;28;20477;-54
2021/06/10 08:36:51;;;;;;;9.10;2.58;;;;;;;22.80;39.48;102111.34;4153785;28;20040;-59
2021/06/10 08:38:51;;;;;;;5.50;2.60;;;;;;;22.90;39.23;102111.38;4151626;28;20029;-62
2021/06/10 08:40:52;;;;;;;6.53;2.90;;;;;;;22.93;39.64;102110.00;4146324;28;20049;-62
2021/06/10 08:42:52;;;;;;;7.25;3.38;;;;;;;22.87;39.10;102097.97;4150339;28;20506;-58
2021/06/10 08:44:54;;;;;;;14.55;3.47;;;;;;;22.86;40.17;102107.44;4155533;28;20581;-54
2021/06/10 08:46:55;;;;;;;13.43;4.28;;;;;;;22.79;39.80;102101.31;4151687;28;20037;-58
2021/06/10 08:48:56;;;;;;;8.10;3.08;;;;;;;22.86;39.77;102093.50;4154234;28;20578;-59
2021/06/10 08:50:57;;;;;;;8.32;3.35;;;;;;;23.10;39.74;102099.41;4156771;28;20032;-55
2021/06/10 08:52:59;;;;;;;6.60;4.13;;;;;;;23.01;39.60;102101.06;4154578;28;20563;-59
2021/06/10 08:55:00;;;;;;;7.13;4.10;;;;;;;23.06;39.45;102083.47;4156098;28;20021;-59
2021/06/10 08:57:01;;;;;;;9.90;3.38;;;;;;;23.10;39.67;102095.78;4143577;28;20038;-60
2021/06/10 08:59:01;;;;;;;10.95;3.78;;;;;;;23.14;39.44;102089.34;4151834;28;20030;-59
2021/06/10 09:01:02;;;;;;;12.20;3.50;;;;;;;23.09;39.55;102086.53;4156718;28;20037;-55
2021/06/10 09:03:03;;;;;;;13.65;4.00;;;;;;;23.18;39.52;102088.81;4155699;28;20563;-59
2021/06/10 09:05:06;;;;;;;14.23;4.28;;;;;;;23.30;38.89;102095.78;4151077;28;20034;-62
2021/06/10 09:07:08;;;;;;;11.15;4.63;;;;;;;23.03;40.14;102098.81;4154707;28;20470;-51
2021/06/10 09:09:09;;;;;;;10.38;4.05;;;;;;;23.12;40.38;102088.78;4135060;28;20029;-60
2021/06/10 09:11:14;;;;;;;18.40;5.75;;;;;;;23.24;40.24;102096.06;4151945;28;20041;-59
2021/06/10 09:13:14;;;;;;;21.45;5.60;;;;;;;23.27;40.21;102087.97;4149669;28;20116;-51
2021/06/10 09:15:17;;;;;;;21.05;5.50;;;;;;;23.24;40.53;102087.69;4151087;28;20068;-53
2021/06/10 09:17:32;;;;;;;16.23;6.28;;;;;;;23.16;40.30;102095.50;4151824;28;20037;-51
2021/06/10 09:19:33;;;;;;;17.65;5.15;;;;;;;23.25;40.52;102097.72;4148166;28;20041;-50
2021/06/10 09:21:40;;;;;;;17.63;5.55;;;;;;;23.37;39.72;102094.69;4151292;28;20420;-59
2021/06/10 09:23:40;;;;;;;16.13;5.25;;;;;;;23.25;40.09;102086.53;4151179;28;20029;-57
2021/06/10 09:25:42;;;;;;;15.48;4.30;;;;;;;23.41;39.78;102079.88;4153603;28;20048;-53